Down Up Stop Top

TXC259
There are no active watches, warnings or advisories

Record high temperature 111.6°F Record low temperature 13.3°F Record high gust 49.5 mph Record high average 32.4 mph Record daily rain 4.23 in. Record low windchill 4.3°F Record high barometer 30.637 in. Record low barometer 28.496 in.
Daily high pressure 29.958 in. Daily low pressure 29.870 in. Daily low windchill 74.3°F Daily high heat index 89.6°F Daily high gust speed 22.5 mph SSW Daily high average speed 16.1 mph SSE
Welfare-Texas Weather
LAST READING AT TIME: 23:10 DATE: September 01 2014, time of next update: 23:15
Current WeatherNight time/Dry Current Temperature 82.6°F (28.1°C) (Heat Index 80.0°F ), Apparent temp 73.8°F
Maximum Temperature (since midnight)94.3°F at: 18:21 Minimum Temperature (since midnight)74.3°F at: 07:06
Average windspeed (ten minute)10.7 mph Wind Direction (ten minute)SE (144°)
Heat Index 80.0°F Maximum Gust (last hour)22.5 mph at: 22:57
Maximum Gust (since midnight)22.5 mph at: 22:57 Maximum 1 minute average (since midnight)16.1 mph at: 15:07
Rainfall (last hour)0.00 in. (0.0 mm) Rainfall (since midnight)0.00 in. (0.0 mm) ---
Rainfall This month 0.00 in. (0.0 mm) Rainfall To date this year 4.57 in. (116.0 mm)
Maximum rain per minute (last hour)0.00 in/min Maximum rain per hour (last 6 hours)0.00 in/hour
Yesterdays rainfall 0.00 in DewPoint 18.0°F (Wet Bulb :55.9°F )
Humidity 9 %, Humidex 76.0°F Barometer corrected to msl29.958 in. (1014.5 hPa)
Pressure change +0.03 in. (last hour) Trend (last hour)RISING SLOWLY
Pressure change (last 12 hours)+0.00 in Pressure change (last 6 hours)+0.06 in

This page is updated from recent data collected by a WMR200 weather station Use the Reload or Refresh facility on your browser to retrieve the latest data.


Click here for the last 24 hour graph
Click here for the last 48 hour graph
Click here for the last 72 hour graph
Click here for the month to date graph


Weather report/warning/Metars

SAN ANTONIO INTERNATIONAL  AIRPORT , TX, United States (KSAT) 29-32N 098-28W 243M
Sep 01, 2014 - 11:51 PM EDT / 2014.09.02 0351 UTC
Wind: from the SE (140 degrees) at 13 MPH (11 KT):0
Visibility: 10 mile(s):0
Sky conditions: clear
Temperature: 84.9 F (29.4 C)
Dew Point: 72.0 F (22.2 C)
Relative Humidity: 65%
Pressure (altimeter): 29.94 in. Hg (1013 hPa)
ob: KSAT 020351Z 14011KT 10SM CLR 29/22 A2994 RMK AO2 SLP117 T02940222 
cycle: 4
NEW BRAUNFELS MUNICIPAL AIRPORT, TX, United States (KBAZ) 29-43N 98-03W 195M
Sep 01, 2014 - 11:51 PM EDT / 2014.09.02 0351 UTC
Wind: from the SSE (160 degrees) at 15 MPH (13 KT):0
Visibility: 10 mile(s):0
Sky conditions: clear
Temperature: 82.9 F (28.3 C)
Dew Point: 71.1 F (21.7 C)
Relative Humidity: 67%
Pressure (altimeter): 29.92 in. Hg (1013 hPa)
ob: KBAZ 020351Z AUTO 16013KT 10SM CLR 28/22 A2992 RMK AO2 SLP123 T02830217
cycle: 4
Kerrville, Kerrville Municipal Airport/Louis Schreiner Field, TX, United States (KERV) 29-58N 099-05W
Sep 01, 2014 - 11:35 PM EDT / 2014.09.02 0335 UTC
Wind: from the SSE (150 degrees) at 15 MPH (13 KT):0
Visibility: 10 mile(s):0
Sky conditions: clear
Temperature: 82.9 F (28.3 C)
Dew Point: 68.9 F (20.5 C)
Relative Humidity: 62%
Pressure (altimeter): 29.95 in. Hg (1014 hPa)
ob: KERV 020335Z AUTO 15013KT 10SM CLR 28/21 A2995 RMK AO2 T02830205
cycle: 3
BANGOR INT'L AIRPORT, ME, United States (KBGR) 44-48N 068-49W 57M
Sep 01, 2014 - 11:53 PM EDT / 2014.09.02 0353 UTC
Wind: from the S (180 degrees) at 5 MPH (4 KT):0
Visibility: 8 mile(s):0
Sky conditions: overcast
Weather: light rain
Precipitation last hour: A trace
Temperature: 69.1 F (20.6 C)
Dew Point: 66.9 F (19.4 C)
Relative Humidity: 92%
Pressure (altimeter): 29.94 in. Hg (1013 hPa)
ob: KBGR 020353Z 18004KT 8SM -RA FEW010 FEW050 OVC070 21/19 A2994 RMK AO2 RAB49 SLP134 P0000 T02060194
cycle: 4



The data is logged at two minute intervals, but there is data recorded every minute.

Use the RELOAD facility on your browser to retrieve the latest data.

Click here for a daily update of the averages/extremes to date for the month


Created by "Weather Display" software version 10.37R Build 23 at this start time/date 06:34 6/14/2014